Time;durP1;ratioP1;P1;durP2;ratioP2;P2;SDS_P1;SDS_P2;PMS_P1;PMS_P2;Temp;Humidity;BMP_temperature;BMP_pressure;BME280_temperature;BME280_humidity;BME280_pressure;Samples;Min_cycle;Max_cycle;Signal;HPM_P1;HPM_P2
2022/10/24 00:01:17;;;;;;;15.25;10.85;;;;;;;12.71;79.78;100010.49;1746325;81;21228;-77
2022/10/24 00:04:23;;;;;;;16.45;11.60;;;;;;;12.70;79.75;100014.29;1734110;82;21244;-77
2022/10/24 00:07:29;;;;;;;16.75;11.63;;;;;;;12.64;79.94;100021.91;1734135;82;21219;-77
2022/10/24 00:10:36;;;;;;;13.03;10.50;;;;;;;12.19;81.45;100024.00;1732697;82;21233;-77
2022/10/24 00:13:43;;;;;;;18.07;11.40;;;;;;;12.14;82.37;100014.63;1734033;82;21248;-77
2022/10/24 00:16:49;;;;;;;13.70;10.85;;;;;;;12.14;82.29;100028.34;1732630;82;21192;-77
2022/10/24 00:19:57;;;;;;;14.65;11.10;;;;;;;12.13;82.26;100030.23;1732594;82;21201;-77
2022/10/24 00:23:03;;;;;;;15.15;10.78;;;;;;;12.14;81.85;100027.84;1732733;82;21273;-77
2022/10/24 00:26:09;;;;;;;27.30;11.70;;;;;;;12.08;82.20;100034.61;1733940;82;21197;-77
2022/10/24 00:29:15;;;;;;;13.83;10.93;;;;;;;12.26;81.12;100036.40;1734036;82;21197;-77
2022/10/24 00:32:22;;;;;;;16.40;11.08;;;;;;;12.35;80.80;100035.77;1732674;82;21208;-77
2022/10/24 00:35:28;;;;;;;14.07;11.28;;;;;;;12.37;80.62;100045.48;1732941;82;21189;-78
2022/10/24 00:38:34;;;;;;;12.88;10.65;;;;;;;12.38;80.73;100036.76;1733984;82;21193;-77
2022/10/24 00:41:45;;;;;;;13.35;10.38;;;;;;;12.44;80.16;100041.45;1733849;82;21827;-77
2022/10/24 00:44:52;;;;;;;16.85;11.05;;;;;;;12.16;81.41;100045.47;1734541;82;21201;-77
2022/10/24 00:47:57;;;;;;;14.58;10.85;;;;;;;12.06;82.04;100042.19;1733331;82;21229;-77
2022/10/24 00:51:11;;;;;;;13.45;10.82;;;;;;;12.13;81.75;100045.84;1733999;82;21181;-77
2022/10/24 00:54:18;;;;;;;15.08;10.32;;;;;;;12.19;81.47;100040.98;1733945;82;21244;-77
2022/10/24 00:57:52;;;;;;;13.32;10.82;;;;;;;12.16;81.82;100041.35;1734520;82;21855;-77
2022/10/24 01:00:57;;;;;;;14.90;11.15;;;;;;;12.17;81.84;100044.41;1734994;82;21150;-77
2022/10/24 01:04:02;;;;;;;16.17;11.93;;;;;;;12.14;81.66;100047.04;1740316;82;21237;-77
2022/10/24 01:07:22;;;;;;;17.10;11.80;;;;;;;12.20;81.64;100056.38;1743250;82;21804;-77
2022/10/24 01:10:39;;;;;;;17.62;12.68;;;;;;;12.42;80.89;100058.12;1741809;82;21236;-77
2022/10/24 01:14:08;;;;;;;15.23;12.47;;;;;;;12.20;80.75;100052.27;1801352;79;21153;-77
2022/10/24 01:17:31;;;;;;;18.25;13.62;;;;;;;12.10;81.34;100058.06;1802491;79;21206;-77
2022/10/24 01:21:17;;;;;;;17.60;12.53;;;;;;;12.08;81.24;100057.38;1802592;79;21169;-77
2022/10/24 01:25:00;;;;;;;18.52;12.50;;;;;;;12.07;81.16;100064.44;1802418;79;21224;-77
2022/10/24 01:28:19;;;;;;;21.42;13.38;;;;;;;11.95;81.49;100060.83;1802502;79;21177;-77
2022/10/24 01:31:44;;;;;;;15.63;11.78;;;;;;;11.91;82.17;100061.41;1802712;79;21728;-77
2022/10/24 01:35:03;;;;;;;18.45;13.70;;;;;;;11.93;82.26;100075.23;1800903;79;21270;-77
2022/10/24 01:38:20;;;;;;;20.90;14.40;;;;;;;11.87;83.12;100071.89;1802476;79;21157;-78
2022/10/24 01:41:19;;;;;;;21.70;15.32;;;;;;;11.99;83.25;100081.31;1802362;79;21181;-77
2022/10/24 01:44:34;;;;;;;27.22;17.25;;;;;;;11.98;83.81;100087.84;1802474;79;21215;-77
2022/10/24 01:47:48;;;;;;;29.98;17.02;;;;;;;11.92;84.64;100089.98;1802499;79;21157;-77
2022/10/24 01:50:55;;;;;;;29.77;18.10;;;;;;;11.92;85.09;100092.72;1802569;79;21212;-77
2022/10/24 01:54:03;;;;;;;25.45;15.30;;;;;;;11.99;84.98;100097.75;1800937;79;21789;-77
2022/10/24 01:57:09;;;;;;;25.88;17.37;;;;;;;12.07;84.73;100090.48;1801027;79;21181;-77
2022/10/24 02:00:16;;;;;;;28.80;18.75;;;;;;;12.02;85.00;100102.02;1802642;79;21157;-77
2022/10/24 02:03:29;;;;;;;30.05;18.65;;;;;;;12.02;85.16;100101.50;1802113;79;21560;-77
2022/10/24 02:06:46;;;;;;;30.92;18.82;;;;;;;12.00;85.36;100104.96;1809955;79;21188;-79
2022/10/24 02:09:52;;;;;;;27.77;17.07;;;;;;;12.08;85.40;100111.37;1812077;79;21232;-78
2022/10/24 02:13:02;;;;;;;30.10;20.32;;;;;;;12.07;85.53;100109.67;1811164;79;21180;-78
2022/10/24 02:16:08;;;;;;;25.68;16.32;;;;;;;12.11;85.67;100117.84;1811482;79;21786;-78
2022/10/24 02:19:15;;;;;;;26.30;18.12;;;;;;;12.15;85.56;100123.28;1810785;79;21188;-78
2022/10/24 02:22:50;;;;;;;30.45;19.27;;;;;;;12.22;85.48;100121.46;1811250;79;21311;-78
2022/10/24 02:25:57;;;;;;;30.12;19.23;;;;;;;12.29;85.26;100121.04;1811286;79;21220;-78
2022/10/24 02:29:05;;;;;;;29.57;18.82;;;;;;;12.30;85.29;100122.73;1811602;79;22663;-78
2022/10/24 02:32:13;;;;;;;27.10;17.15;;;;;;;12.31;85.48;100129.91;1811404;79;21216;-78
2022/10/24 02:35:21;;;;;;;34.10;18.35;;;;;;;12.25;85.89;100137.55;1810225;78;21196;-78
2022/10/24 02:38:28;;;;;;;31.85;20.65;;;;;;;12.32;86.03;100136.24;1811295;79;21224;-78
2022/10/24 02:41:38;;;;;;;33.28;19.32;;;;;;;12.34;86.27;100138.29;1811378;79;21471;-78
2022/10/24 02:44:46;;;;;;;31.27;18.85;;;;;;;12.52;85.72;100138.20;1809675;79;21208;-78
2022/10/24 02:47:53;;;;;;;31.07;16.62;;;;;;;12.40;86.08;100132.88;1811277;79;21367;-78
2022/10/24 02:50:58;;;;;;;36.35;19.52;;;;;;;12.44;86.28;100130.08;1810022;79;21204;-78
2022/10/24 02:54:04;;;;;;;30.77;18.80;;;;;;;12.38;86.57;100128.11;1810743;79;21177;-78
2022/10/24 02:57:12;;;;;;;32.28;19.30;;;;;;;12.33;86.91;100133.33;1811308;79;21224;-78
2022/10/24 03:00:19;;;;;;;29.45;17.50;;;;;;;12.48;86.87;100131.92;1811496;79;21176;-78
2022/10/24 03:03:25;;;;;;;25.85;15.70;;;;;;;12.58;86.22;100135.20;1811223;79;21212;-78
2022/10/24 03:06:30;;;;;;;27.77;16.82;;;;;;;12.52;86.74;100134.09;1802727;79;21208;-78
2022/10/24 03:09:37;;;;;;;31.07;17.60;;;;;;;12.50;87.23;100138.90;1802044;79;21217;-78
2022/10/24 03:12:43;;;;;;;29.23;18.65;;;;;;;12.27;88.01;100140.93;1802458;79;21157;-77
2022/10/24 03:15:49;;;;;;;29.10;18.40;;;;;;;12.39;87.91;100144.05;1801026;79;21169;-77
2022/10/24 03:18:49;;;;;;;37.73;19.25;;;;;;;12.54;87.68;100151.19;1800971;79;21181;-77
2022/10/24 03:21:43;;;;;;;31.07;18.75;;;;;;;12.58;87.40;100149.45;1802444;79;21185;-77
2022/10/24 03:24:49;;;;;;;23.97;16.47;;;;;;;12.81;86.69;100153.40;1801939;79;21216;-77
2022/10/24 03:27:55;;;;;;;29.98;16.95;;;;;;;12.62;87.38;100157.62;1802601;79;21161;-77
2022/10/24 03:31:02;;;;;;;29.57;17.55;;;;;;;12.54;87.62;100156.67;1802550;79;21174;-77
2022/10/24 03:34:08;;;;;;;26.15;15.48;;;;;;;12.57;87.80;100154.61;1802214;79;21181;-78
2022/10/24 03:37:14;;;;;;;25.43;15.00;;;;;;;12.77;86.96;100158.42;1802441;79;21720;-78
2022/10/24 03:40:19;;;;;;;24.75;15.70;;;;;;;12.70;87.15;100160.23;1802466;79;21208;-78
2022/10/24 03:43:24;;;;;;;24.37;15.53;;;;;;;12.72;87.26;100160.38;1802502;79;21181;-77
2022/10/24 03:46:32;;;;;;;30.52;15.98;;;;;;;12.76;87.05;100162.22;1800948;79;21185;-78
2022/10/24 03:49:39;;;;;;;25.82;15.88;;;;;;;12.71;87.22;100159.20;1800959;79;21185;-77
2022/10/24 03:52:46;;;;;;;24.25;15.00;;;;;;;13.01;86.33;100160.78;1801033;79;21772;-77
2022/10/24 03:55:51;;;;;;;30.50;16.57;;;;;;;13.04;85.71;100151.32;1801290;79;21696;-77
2022/10/24 03:58:58;;;;;;;24.20;14.93;;;;;;;12.99;85.64;100156.02;1801050;79;21211;-77
2022/10/24 04:02:05;;;;;;;26.35;15.15;;;;;;;13.09;85.46;100161.72;1802624;79;21174;-77
2022/10/24 04:05:10;;;;;;;33.55;14.73;;;;;;;13.01;85.48;100164.05;1800939;78;21362;-77
2022/10/24 04:08:17;;;;;;;21.50;13.88;;;;;;;13.03;85.27;100164.20;1807781;79;21192;-77
2022/10/24 04:11:23;;;;;;;22.73;14.50;;;;;;;12.92;86.02;100161.11;1809478;79;21180;-78
2022/10/24 04:14:29;;;;;;;20.08;12.90;;;;;;;12.62;86.37;100165.85;1810845;79;21173;-77
2022/10/24 04:17:31;;;;;;;20.88;13.25;;;;;;;12.55;87.53;100156.16;1811045;79;21157;-77
2022/10/24 04:20:36;;;;;;;17.77;11.55;;;;;;;12.25;88.78;100162.22;1810964;79;21232;-78
2022/10/24 04:23:43;;;;;;;14.43;10.38;;;;;;;12.22;88.84;100160.70;1811013;79;21716;-77
2022/10/24 04:26:49;;;;;;;11.85;8.65;;;;;;;12.10;88.26;100161.39;1811025;79;21180;-77
2022/10/24 04:29:55;;;;;;;16.52;8.58;;;;;;;12.21;86.56;100169.13;1810910;79;21224;-77
2022/10/24 04:33:01;;;;;;;10.08;7.45;;;;;;;12.10;86.69;100177.84;1810885;79;21180;-77
2022/10/24 04:36:07;;;;;;;16.05;8.53;;;;;;;12.20;86.29;100176.50;1809416;79;21212;-77
2022/10/24 04:39:13;;;;;;;11.80;8.53;;;;;;;12.24;86.24;100179.73;1809604;79;21180;-78
2022/10/24 04:42:21;;;;;;;14.87;9.03;;;;;;;12.43;85.33;100181.88;1811980;79;21145;-77
2022/10/24 04:45:26;;;;;;;13.90;8.78;;;;;;;12.42;85.63;100191.16;1811186;79;22481;-77
2022/10/24 04:48:32;;;;;;;12.55;9.33;;;;;;;12.43;85.67;100192.84;1810889;79;21185;-77
2022/10/24 04:51:38;;;;;;;16.95;8.85;;;;;;;12.51;85.81;100197.36;1810581;79;21831;-77
2022/10/24 04:54:44;;;;;;;13.15;8.23;;;;;;;12.52;85.64;100198.56;1810776;79;21181;-78
2022/10/24 04:57:50;;;;;;;11.18;7.78;;;;;;;12.70;84.62;100208.25;1810540;79;21716;-77
2022/10/24 05:00:56;;;;;;;11.57;8.58;;;;;;;12.67;84.69;100208.12;1808582;79;22393;-77
2022/10/24 05:04:02;;;;;;;15.08;8.10;;;;;;;12.65;84.60;100214.84;1809263;79;21727;-77
2022/10/24 05:07:09;;;;;;;10.35;8.73;;;;;;;12.64;84.90;100220.85;1808860;79;21200;-77
2022/10/24 05:10:15;;;;;;;10.68;7.50;;;;;;;12.73;84.67;100227.09;1801155;79;21216;-78
2022/10/24 05:13:22;;;;;;;14.00;9.18;;;;;;;12.69;84.77;100230.73;1800945;79;21180;-77
2022/10/24 05:16:29;;;;;;;11.63;8.40;;;;;;;12.58;85.25;100231.23;1801534;79;21723;-77
2022/10/24 05:19:38;;;;;;;13.15;9.03;;;;;;;12.68;84.55;100246.87;1802300;79;21233;-77
2022/10/24 05:22:43;;;;;;;13.83;7.62;;;;;;;12.69;84.50;100253.20;1801773;79;21197;-77
2022/10/24 05:25:49;;;;;;;12.35;7.53;;;;;;;12.61;84.48;100256.92;1801784;79;21212;-77
2022/10/24 05:28:56;;;;;;;11.30;7.97;;;;;;;12.51;84.91;100262.70;1802438;79;21220;-77
2022/10/24 05:32:03;;;;;;;8.75;6.33;;;;;;;12.55;85.06;100272.75;1802386;79;21161;-77
2022/10/24 05:35:08;;;;;;;12.55;7.58;;;;;;;12.57;85.26;100284.41;1802453;79;21189;-77
2022/10/24 05:38:14;;;;;;;8.93;6.90;;;;;;;12.71;84.92;100290.94;1798599;79;21599;-77
2022/10/24 05:41:21;;;;;;;12.23;7.30;;;;;;;12.79;84.76;100286.16;1800985;79;21189;-79
2022/10/24 05:44:27;;;;;;;9.03;7.15;;;;;;;12.89;83.90;100285.89;1801082;79;21221;-79
2022/10/24 05:47:34;;;;;;;8.00;6.62;;;;;;;12.82;83.83;100295.92;1799702;79;21209;-79
2022/10/24 05:50:41;;;;;;;18.20;6.85;;;;;;;12.93;83.22;100298.17;1800722;79;21197;-79
2022/10/24 05:53:48;;;;;;;17.80;6.75;;;;;;;13.05;82.72;100299.39;1800154;79;21204;-79
2022/10/24 05:57:12;;;;;;;10.40;7.15;;;;;;;13.13;83.13;100303.08;1800167;79;21299;-79
2022/10/24 06:00:21;;;;;;;12.13;7.45;;;;;;;13.48;82.63;100304.97;1793521;79;21284;-79
2022/10/24 06:03:27;;;;;;;9.03;5.92;;;;;;;13.55;82.35;100311.41;1787513;79;21162;-79
2022/10/24 06:06:33;;;;;;;10.30;6.65;;;;;;;13.66;81.55;100306.42;1786748;79;21739;-79
2022/10/24 06:09:40;;;;;;;8.98;5.83;;;;;;;13.78;80.80;100308.95;1770775;79;21264;-79
2022/10/24 06:12:47;;;;;;;9.83;6.53;;;;;;;13.70;80.87;100307.73;1772501;79;21274;-79
2022/10/24 06:15:53;;;;;;;8.40;5.67;;;;;;;13.71;80.63;100304.78;1796611;79;21185;-79
2022/10/24 06:19:00;;;;;;;9.58;6.67;;;;;;;13.87;79.73;100313.27;1786957;79;21205;-79
2022/10/24 06:22:05;;;;;;;12.70;6.42;;;;;;;13.81;80.02;100314.07;1787398;79;21466;-79
2022/10/24 06:25:11;;;;;;;9.48;6.35;;;;;;;14.04;79.11;100307.83;1767771;81;21232;-79
2022/10/24 06:28:17;;;;;;;9.75;7.33;;;;;;;14.08;79.24;100312.41;1773015;78;21246;-79
2022/10/24 06:31:18;;;;;;;9.58;6.67;;;;;;;14.27;78.68;100325.99;1790285;78;21252;-79
2022/10/24 06:34:18;;;;;;;14.35;6.90;;;;;;;14.05;79.49;100327.92;1797019;78;21759;-79
2022/10/24 06:37:24;;;;;;;9.55;7.33;;;;;;;14.02;79.90;100322.81;1791416;78;21185;-79
2022/10/24 06:40:30;;;;;;;10.08;7.15;;;;;;;14.13;80.14;100317.31;1791620;78;21244;-79
2022/10/24 06:43:36;;;;;;;14.33;8.65;;;;;;;14.17;81.05;100313.12;1779620;79;21170;-79
2022/10/24 06:46:43;;;;;;;10.50;8.05;;;;;;;14.16;81.43;100316.89;1790750;78;21530;-79
2022/10/24 06:49:49;;;;;;;16.23;8.53;;;;;;;14.01;81.87;100314.23;1792619;78;21181;-78
2022/10/24 06:52:56;;;;;;;12.90;9.48;;;;;;;14.22;81.39;100314.74;1792040;78;21169;-80
2022/10/24 06:56:11;;;;;;;13.27;8.43;;;;;;;14.33;81.36;100320.53;1783312;79;21910;-80
2022/10/24 06:59:20;;;;;;;13.53;8.90;;;;;;;14.62;80.75;100324.67;1794951;78;21162;-80
2022/10/24 07:02:27;;;;;;;14.80;9.18;;;;;;;14.51;81.19;100315.92;1771171;78;21229;-79
2022/10/24 07:05:33;;;;;;;13.72;10.50;;;;;;;14.83;80.63;100314.95;1779560;78;22385;-79
2022/10/24 07:08:39;;;;;;;13.48;9.45;;;;;;;15.08;79.93;100316.13;1785779;78;22005;-79
2022/10/24 07:11:46;;;;;;;12.93;8.95;;;;;;;15.17;79.33;100313.20;1773623;79;21832;-78
2022/10/24 07:14:51;;;;;;;13.43;9.73;;;;;;;15.18;78.53;100317.64;1771409;79;21212;-78
2022/10/24 07:17:56;;;;;;;15.88;9.33;;;;;;;15.02;78.68;100314.73;1773130;80;21165;-78
2022/10/24 07:21:02;;;;;;;13.90;10.70;;;;;;;14.84;79.32;100316.65;1767202;79;21486;-78
2022/10/24 07:24:08;;;;;;;14.65;10.53;;;;;;;15.00;80.05;100320.42;1743099;79;21775;-78
2022/10/24 07:27:14;;;;;;;16.57;10.18;;;;;;;14.89;79.62;100329.80;1761886;79;22440;-78
2022/10/24 07:30:24;;;;;;;12.82;8.95;;;;;;;14.95;79.00;100327.07;1762994;79;21201;-78
2022/10/24 07:33:30;;;;;;;11.07;8.43;;;;;;;15.00;78.89;100327.84;1772901;79;21210;-78
2022/10/24 07:36:36;;;;;;;10.90;8.48;;;;;;;15.11;78.75;100328.65;1732971;82;21422;-78
2022/10/24 07:39:42;;;;;;;11.48;8.13;;;;;;;15.06;78.48;100322.37;1725489;82;21780;-78
2022/10/24 07:42:48;;;;;;;18.55;9.68;;;;;;;14.91;78.86;100323.02;1694028;82;21174;-78
2022/10/24 07:45:54;;;;;;;10.50;7.78;;;;;;;15.53;77.19;100326.14;1711456;82;21823;-78
2022/10/24 07:49:00;;;;;;;11.57;9.05;;;;;;;15.07;78.10;100321.84;1726996;81;21264;-78
2022/10/24 07:52:06;;;;;;;14.75;8.78;;;;;;;15.25;77.42;100326.80;1719394;82;21719;-78
2022/10/24 07:55:14;;;;;;;14.78;8.95;;;;;;;15.37;77.19;100319.61;1723782;81;21260;-78
2022/10/24 07:58:20;;;;;;;10.28;8.83;;;;;;;15.25;76.66;100328.17;1710845;83;21201;-78
2022/10/24 08:01:28;;;;;;;14.68;8.95;;;;;;;15.28;76.49;100324.45;1732278;82;21648;-78
2022/10/24 08:04:35;;;;;;;17.35;9.75;;;;;;;15.40;76.42;100326.09;1718460;82;21244;-78
2022/10/24 08:07:43;;;;;;;13.30;8.28;;;;;;;15.39;75.73;100346.45;1733345;81;21690;-78
2022/10/24 08:10:52;;;;;;;9.75;8.55;;;;;;;15.46;73.19;100328.02;1720199;80;21229;-78
2022/10/24 08:14:01;;;;;;;10.63;8.00;;;;;;;15.74;72.45;100327.90;1791051;78;21236;-80
2022/10/24 08:17:07;;;;;;;13.43;8.18;;;;;;;16.06;71.10;100330.38;1785921;78;22367;-80
2022/10/24 08:20:13;;;;;;;11.73;7.85;;;;;;;16.12;71.38;100331.97;1790496;79;21153;-80
2022/10/24 08:23:18;;;;;;;10.80;8.23;;;;;;;16.16;71.08;100323.05;1770894;79;21173;-80
2022/10/24 08:26:27;;;;;;;13.28;7.42;;;;;;;16.09;70.75;100334.10;1778904;78;21173;-80
2022/10/24 08:29:35;;;;;;;8.68;6.80;;;;;;;16.06;70.63;100337.27;1793766;79;21248;-80
2022/10/24 08:32:35;;;;;;;7.95;6.00;;;;;;;16.26;70.50;100339.18;1766982;79;21161;-80
2022/10/24 08:35:41;;;;;;;8.53;6.28;;;;;;;16.35;68.75;100337.91;1786787;79;21176;-80
2022/10/24 08:38:46;;;;;;;9.75;6.28;;;;;;;16.34;67.91;100337.06;1783237;78;21224;-79
2022/10/24 08:42:10;;;;;;;8.65;6.65;;;;;;;15.98;68.59;100342.14;1783224;78;21216;-80
2022/10/24 08:45:27;;;;;;;9.28;5.95;;;;;;;16.06;69.32;100344.70;1793485;79;21712;-80
2022/10/24 08:48:41;;;;;;;6.53;5.58;;;;;;;16.10;69.27;100344.07;1778948;79;21209;-79
2022/10/24 08:51:56;;;;;;;9.90;5.87;;;;;;;15.81;69.32;100348.08;1784736;78;21184;-79
2022/10/24 08:55:08;;;;;;;8.30;6.62;;;;;;;15.69;69.92;100341.47;1786243;79;21173;-79
2022/10/24 08:58:20;;;;;;;7.60;5.35;;;;;;;15.67;69.65;100352.41;1775886;79;21255;-79
2022/10/24 09:01:49;;;;;;;9.08;4.75;;;;;;;15.75;68.70;100361.84;1783979;79;21197;-79
2022/10/24 09:05:01;;;;;;;8.40;4.60;;;;;;;15.89;68.61;100361.33;1790388;79;21582;-79
2022/10/24 09:08:12;;;;;;;8.53;4.90;;;;;;;15.84;66.66;100377.13;1788912;79;21248;-78
2022/10/24 09:11:24;;;;;;;8.25;5.30;;;;;;;15.89;67.73;100356.66;1786357;78;21268;-79
2022/10/24 09:14:35;;;;;;;5.95;4.40;;;;;;;15.88;68.00;100362.40;1767329;79;21180;-78
2022/10/24 09:17:41;;;;;;;6.72;4.33;;;;;;;15.90;67.59;100361.11;1774452;79;21293;-78
2022/10/24 09:20:48;;;;;;;5.47;4.53;;;;;;;15.95;65.17;100375.16;1747758;79;21213;-78
2022/10/24 09:23:54;;;;;;;5.53;4.22;;;;;;;15.94;66.21;100360.17;1758452;79;21819;-78
2022/10/24 09:27:03;;;;;;;15.00;5.05;;;;;;;16.10;64.91;100361.16;1768591;79;21312;-79
2022/10/24 09:30:09;;;;;;;5.37;4.55;;;;;;;16.14;65.90;100365.70;1770488;79;22346;-79
2022/10/24 09:33:31;;;;;;;9.25;4.37;;;;;;;16.22;65.22;100362.20;1768385;79;21194;-79
2022/10/24 09:36:36;;;;;;;7.15;4.62;;;;;;;16.32;65.24;100362.63;1778853;79;21394;-80
2022/10/24 09:39:41;;;;;;;4.47;4.08;;;;;;;16.27;64.76;100358.81;1744826;81;21247;-80
2022/10/24 09:42:47;;;;;;;9.85;4.55;;;;;;;16.23;65.75;100350.64;1766145;79;21184;-80
2022/10/24 09:46:03;;;;;;;5.25;3.75;;;;;;;16.20;65.67;100340.89;1741920;80;21331;-80
2022/10/24 09:49:17;;;;;;;6.45;3.55;;;;;;;16.37;64.27;100349.56;1764638;79;21806;-79
2022/10/24 09:52:32;;;;;;;5.87;3.87;;;;;;;16.47;63.38;100359.67;1745712;81;21196;-80
2022/10/24 09:55:37;;;;;;;8.28;5.03;;;;;;;16.53;62.98;100357.43;1744215;81;21185;-79
2022/10/24 09:58:36;;;;;;;6.20;4.08;;;;;;;16.53;64.03;100357.43;1757376;81;21164;-79
2022/10/24 10:01:29;;;;;;;9.28;4.45;;;;;;;16.58;63.72;100360.39;1773891;79;21225;-79
2022/10/24 10:04:19;;;;;;;7.05;4.95;;;;;;;16.61;62.81;100361.36;1750047;79;21218;-79
2022/10/24 10:07:26;;;;;;;6.30;4.53;;;;;;;16.64;62.95;100350.93;1764909;79;21220;-79
2022/10/24 10:10:40;;;;;;;6.85;5.22;;;;;;;16.57;63.72;100349.58;1703465;82;21192;-78
2022/10/24 10:13:55;;;;;;;8.05;5.33;;;;;;;16.42;65.41;100357.21;1723315;81;21260;-78
2022/10/24 10:17:09;;;;;;;8.28;5.53;;;;;;;16.56;66.36;100357.02;1776627;79;21157;-78
2022/10/24 10:20:20;;;;;;;9.20;5.42;;;;;;;16.65;65.72;100351.23;1776698;79;21134;-78
2022/10/24 10:23:44;;;;;;;7.15;5.10;;;;;;;16.91;66.00;100361.43;1797464;78;21189;-78
2022/10/24 10:26:51;;;;;;;9.05;5.58;;;;;;;16.99;64.83;100357.06;1789604;78;21225;-79
2022/10/24 10:30:22;;;;;;;7.25;5.47;;;;;;;16.67;65.10;100359.64;1759867;81;21205;-78
2022/10/24 10:33:51;;;;;;;6.00;5.28;;;;;;;16.62;66.07;100364.97;1799301;78;21253;-78
2022/10/24 10:37:14;;;;;;;8.53;4.97;;;;;;;16.46;66.08;100357.11;1794687;79;21230;-79
2022/10/24 10:40:32;;;;;;;9.93;5.53;;;;;;;16.75;65.87;100361.34;1780788;79;21161;-79
2022/10/24 10:43:57;;;;;;;6.42;3.98;;;;;;;16.56;67.19;100362.53;1786607;79;21163;-78
2022/10/24 10:47:34;;;;;;;7.00;4.47;;;;;;;16.57;66.72;100362.84;1767557;81;21189;-80
2022/10/24 10:50:48;;;;;;;8.73;4.53;;;;;;;16.69;66.24;100364.94;1768510;79;21949;-80
2022/10/24 10:54:15;;;;;;;5.25;3.65;;;;;;;16.96;65.35;100375.44;1767606;81;21189;-80
2022/10/24 10:57:37;;;;;;;4.62;3.90;;;;;;;16.93;66.44;100366.19;1766522;79;21201;-79
2022/10/24 11:01:02;;;;;;;6.42;4.10;;;;;;;16.99;64.94;100370.34;1795800;79;21234;-80
2022/10/24 11:04:36;;;;;;;5.03;3.52;;;;;;;17.20;63.80;100358.67;1772323;79;21201;-79
2022/10/24 11:07:45;;;;;;;5.30;3.27;;;;;;;17.17;63.87;100365.48;1781368;79;21823;-78
2022/10/24 11:11:00;;;;;;;3.30;2.83;;;;;;;17.01;63.68;100366.81;1765696;79;21245;-78
2022/10/24 11:14:38;;;;;;;7.25;3.42;;;;;;;16.99;63.68;100372.26;1771171;79;21204;-78
2022/10/24 11:18:18;;;;;;;4.40;3.08;;;;;;;17.05;62.76;100358.41;1754110;78;21200;-79
2022/10/24 11:21:27;;;;;;;6.05;2.90;;;;;;;17.12;61.92;100369.42;1766482;78;21161;-79
2022/10/24 11:24:33;;;;;;;4.05;2.75;;;;;;;17.24;61.81;100361.33;1781349;78;21263;-79
2022/10/24 11:27:46;;;;;;;8.68;3.20;;;;;;;17.40;61.86;100346.98;1800708;78;21237;-80
2022/10/24 11:31:01;;;;;;;5.67;2.77;;;;;;;17.46;60.55;100355.81;1768743;79;21711;-79
2022/10/24 11:34:15;;;;;;;4.08;2.87;;;;;;;17.33;60.82;100356.70;1800056;78;21173;-79
2022/10/24 11:37:37;;;;;;;4.53;2.62;;;;;;;17.14;61.70;100368.70;1796139;78;21181;-79
2022/10/24 11:40:42;;;;;;;5.25;2.55;;;;;;;17.14;61.83;100366.47;1788126;78;21157;-78
2022/10/24 11:43:49;;;;;;;3.95;2.52;;;;;;;17.04;60.69;100354.49;1782639;79;21177;-78
2022/10/24 11:47:00;;;;;;;8.28;3.90;;;;;;;16.92;61.90;100373.64;1790648;78;21161;-78
2022/10/24 11:50:29;;;;;;;6.55;2.80;;;;;;;16.92;62.44;100367.27;1780390;79;21252;-79
2022/10/24 11:53:45;;;;;;;5.80;2.92;;;;;;;16.90;62.61;100366.11;1782542;79;21709;-79
2022/10/24 11:57:02;;;;;;;6.78;3.37;;;;;;;16.87;63.14;100356.86;1797424;79;22396;-78
2022/10/24 12:00:09;;;;;;;6.15;2.95;;;;;;;16.99;63.84;100366.73;1767378;81;21938;-78
2022/10/24 12:03:35;;;;;;;10.03;3.02;;;;;;;17.01;63.26;100362.67;1777729;79;21169;-78
2022/10/24 12:07:00;;;;;;;5.12;3.37;;;;;;;16.89;63.12;100363.04;1789303;79;21735;-79
2022/10/24 12:10:38;;;;;;;5.45;3.10;;;;;;;16.82;64.00;100360.81;1798708;79;21204;-79
2022/10/24 12:14:09;;;;;;;5.65;3.12;;;;;;;16.94;64.08;100365.13;1801285;78;21221;-79
2022/10/24 12:17:37;;;;;;;4.55;3.05;;;;;;;16.83;64.42;100374.40;1794229;78;21165;-80
2022/10/24 12:20:43;;;;;;;5.92;3.60;;;;;;;16.91;63.90;100376.63;1767003;81;21200;-79
2022/10/24 12:23:49;;;;;;;7.97;3.22;;;;;;;16.87;64.50;100380.34;1778671;78;21256;-78
2022/10/24 12:27:07;;;;;;;4.55;3.27;;;;;;;16.87;64.43;100378.97;1797314;79;21237;-78
2022/10/24 12:30:26;;;;;;;5.65;3.47;;;;;;;16.90;64.60;100384.07;1798229;78;21221;-78
2022/10/24 12:33:33;;;;;;;4.33;2.80;;;;;;;16.88;63.12;100389.48;1782039;79;21499;-78
2022/10/24 12:37:27;;;;;;;8.83;2.87;;;;;;;16.97;62.77;100386.27;1783354;78;21268;-78
2022/10/24 12:41:11;;;;;;;7.25;3.25;;;;;;;16.69;63.93;100385.12;1790366;79;21200;-78
2022/10/24 12:44:43;;;;;;;4.78;2.98;;;;;;;16.69;64.02;100388.41;1790443;79;21232;-78
2022/10/24 12:47:52;;;;;;;7.50;3.85;;;;;;;16.34;65.46;100378.47;1771779;79;21879;-78
2022/10/24 12:51:11;;;;;;;5.97;3.70;;;;;;;16.34;65.41;100384.52;1782766;79;21818;-78
2022/10/24 12:54:25;;;;;;;3.92;3.00;;;;;;;16.42;65.36;100382.93;1800605;79;21177;-79
2022/10/24 12:57:44;;;;;;;4.97;3.62;;;;;;;16.36;65.82;100389.28;1798893;79;21180;-79
2022/10/24 13:01:07;;;;;;;5.75;3.42;;;;;;;16.19;66.18;100386.64;1791127;79;21605;-78
2022/10/24 13:05:09;;;;;;;5.80;3.35;;;;;;;16.26;66.29;100384.72;1790747;78;21198;-79
2022/10/24 13:08:40;;;;;;;6.30;3.25;;;;;;;16.22;66.48;100384.28;1827122;78;21177;-79
2022/10/24 13:12:10;;;;;;;3.52;2.83;;;;;;;16.22;66.58;100388.95;1827741;78;21217;-79
2022/10/24 13:15:24;;;;;;;3.70;2.90;;;;;;;15.91;67.36;100388.20;1828286;78;21829;-79
2022/10/24 13:19:02;;;;;;;5.65;3.98;;;;;;;16.00;66.95;100393.30;1827999;78;21659;-79
2022/10/24 13:22:08;;;;;;;6.25;3.95;;;;;;;15.98;67.21;100398.16;1827062;78;21186;-79
2022/10/24 13:25:42;;;;;;;6.15;3.70;;;;;;;15.87;67.52;100408.44;1811390;78;21185;-80
2022/10/24 13:28:47;;;;;;;5.40;3.40;;;;;;;15.88;67.96;100407.38;1807539;78;22482;-78
2022/10/24 13:31:56;;;;;;;5.90;2.98;;;;;;;15.87;68.45;100402.08;1826930;78;21189;-78
2022/10/24 13:35:02;;;;;;;6.47;3.87;;;;;;;15.92;68.77;100411.42;1829003;78;21468;-78
2022/10/24 13:38:08;;;;;;;6.50;3.27;;;;;;;15.93;69.13;100415.88;1829639;78;21352;-77
2022/10/24 13:41:14;;;;;;;9.20;3.70;;;;;;;16.01;69.44;100425.88;1828957;78;21280;-78
2022/10/24 13:44:47;;;;;;;4.08;2.98;;;;;;;16.07;69.58;100420.36;1829823;78;21704;-77
2022/10/24 13:47:57;;;;;;;6.60;2.83;;;;;;;16.11;70.14;100426.31;1829775;78;21220;-78
2022/10/24 13:51:11;;;;;;;7.47;3.50;;;;;;;16.10;70.51;100427.37;1829065;78;21185;-77
2022/10/24 13:54:24;;;;;;;3.77;2.80;;;;;;;16.05;70.66;100432.14;1828504;78;21775;-77
2022/10/24 13:57:39;;;;;;;11.03;3.27;;;;;;;15.98;71.41;100429.89;1829462;78;21165;-77
2022/10/24 14:00:51;;;;;;;6.78;3.00;;;;;;;15.98;71.56;100430.42;1829412;78;21197;-77
2022/10/24 14:03:58;;;;;;;6.00;3.02;;;;;;;15.97;71.78;100435.62;1827623;78;21181;-77
2022/10/24 14:06:57;;;;;;;4.25;2.80;;;;;;;16.02;71.73;100438.07;1828288;78;21181;-77
2022/10/24 14:10:18;;;;;;;4.90;2.60;;;;;;;15.95;71.99;100434.96;1827805;78;21217;-77
2022/10/24 14:13:24;;;;;;;9.70;3.50;;;;;;;16.04;71.34;100444.75;1829185;78;21732;-79
2022/10/24 14:16:38;;;;;;;4.33;2.40;;;;;;;15.94;70.84;100441.55;1828689;78;21764;-79
2022/10/24 14:19:45;;;;;;;6.40;2.67;;;;;;;15.95;70.41;100437.22;1798622;79;21185;-79
2022/10/24 14:22:53;;;;;;;4.85;2.60;;;;;;;15.83;70.69;100441.63;1797545;80;21175;-77
2022/10/24 14:26:14;;;;;;;7.55;2.90;;;;;;;15.74;70.90;100439.58;1798381;80;21471;-78
2022/10/24 14:29:33;;;;;;;4.17;2.33;;;;;;;15.75;71.01;100439.90;1797505;80;21818;-77
2022/10/24 14:32:39;;;;;;;5.12;3.05;;;;;;;15.74;70.87;100442.34;1742907;82;21826;-77
2022/10/24 14:35:45;;;;;;;5.17;2.75;;;;;;;15.71;70.90;100444.12;1706030;84;22423;-78
2022/10/24 14:38:55;;;;;;;7.05;2.90;;;;;;;15.87;70.36;100445.68;1683681;82;21221;-78
2022/10/24 14:42:00;;;;;;;3.20;2.35;;;;;;;15.58;71.15;100438.02;1710159;84;21256;-77